sensor_id;sensor_type;location;lat;lon;timestamp;P1;durP1;ratioP1;P2;durP2;ratioP2
20637;SDS011;10478;49.004;8.470;2023-10-13T00:00:37;10.23;;;4.22;;
20637;SDS011;10478;49.004;8.470;2023-10-13T00:03:05;11.02;;;5.55;;
20637;SDS011;10478;49.004;8.470;2023-10-13T00:05:31;11.73;;;4.93;;
20637;SDS011;10478;49.004;8.470;2023-10-13T00:07:59;8.18;;;4.22;;
20637;SDS011;10478;49.004;8.470;2023-10-13T00:10:31;12.38;;;5.13;;
20637;SDS011;10478;49.004;8.470;2023-10-13T00:12:57;8.52;;;4.28;;
20637;SDS011;10478;49.004;8.470;2023-10-13T00:15:41;13.00;;;4.75;;
20637;SDS011;10478;49.004;8.470;2023-10-13T00:18:20;11.07;;;5.30;;
20637;SDS011;10478;49.004;8.470;2023-10-13T00:20:45;11.88;;;4.70;;
20637;SDS011;10478;49.004;8.470;2023-10-13T00:23:17;9.18;;;5.03;;
20637;SDS011;10478;49.004;8.470;2023-10-13T00:25:51;16.02;;;4.95;;
20637;SDS011;10478;49.004;8.470;2023-10-13T00:28:23;8.77;;;5.15;;
20637;SDS011;10478;49.004;8.470;2023-10-13T00:30:50;11.68;;;4.95;;
20637;SDS011;10478;49.004;8.470;2023-10-13T00:33:18;8.35;;;5.15;;
20637;SDS011;10478;49.004;8.470;2023-10-13T00:35:47;12.82;;;5.38;;
20637;SDS011;10478;49.004;8.470;2023-10-13T00:38:16;7.95;;;4.80;;
20637;SDS011;10478;49.004;8.470;2023-10-13T00:40:42;10.07;;;4.30;;
20637;SDS011;10478;49.004;8.470;2023-10-13T00:43:22;10.75;;;4.38;;
20637;SDS011;10478;49.004;8.470;2023-10-13T00:48:35;6.90;;;4.40;;
20637;SDS011;10478;49.004;8.470;2023-10-13T00:51:09;6.38;;;3.85;;
20637;SDS011;10478;49.004;8.470;2023-10-13T00:53:44;9.07;;;4.65;;
20637;SDS011;10478;49.004;8.470;2023-10-13T00:56:10;9.40;;;4.22;;
20637;SDS011;10478;49.004;8.470;2023-10-13T00:58:43;7.93;;;4.00;;
20637;SDS011;10478;49.004;8.470;2023-10-13T01:01:12;8.65;;;4.05;;
20637;SDS011;10478;49.004;8.470;2023-10-13T01:03:53;7.18;;;4.15;;
20637;SDS011;10478;49.004;8.470;2023-10-13T01:06:20;9.23;;;3.75;;
20637;SDS011;10478;49.004;8.470;2023-10-13T01:08:49;11.43;;;4.25;;
20637;SDS011;10478;49.004;8.470;2023-10-13T01:11:16;9.02;;;4.30;;
20637;SDS011;10478;49.004;8.470;2023-10-13T01:13:44;5.47;;;3.38;;
20637;SDS011;10478;49.004;8.470;2023-10-13T01:16:12;10.90;;;4.80;;
20637;SDS011;10478;49.004;8.470;2023-10-13T01:18:37;10.77;;;3.47;;
20637;SDS011;10478;49.004;8.470;2023-10-13T01:21:13;6.43;;;3.78;;
20637;SDS011;10478;49.004;8.470;2023-10-13T01:23:41;7.60;;;3.35;;
20637;SDS011;10478;49.004;8.470;2023-10-13T01:26:10;7.63;;;3.35;;
20637;SDS011;10478;49.004;8.470;2023-10-13T01:28:38;10.00;;;3.72;;
20637;SDS011;10478;49.004;8.470;2023-10-13T01:31:12;8.43;;;4.13;;
20637;SDS011;10478;49.004;8.470;2023-10-13T01:33:42;6.70;;;3.33;;
20637;SDS011;10478;49.004;8.470;2023-10-13T01:36:07;6.13;;;3.33;;
20637;SDS011;10478;49.004;8.470;2023-10-13T01:38:33;8.57;;;3.83;;
20637;SDS011;10478;49.004;8.470;2023-10-13T01:40:58;6.78;;;3.65;;
20637;SDS011;10478;49.004;8.470;2023-10-13T01:43:24;5.70;;;2.95;;
20637;SDS011;10478;49.004;8.470;2023-10-13T01:45:49;5.32;;;3.08;;
20637;SDS011;10478;49.004;8.470;2023-10-13T01:48:15;6.95;;;3.55;;
20637;SDS011;10478;49.004;8.470;2023-10-13T01:50:44;5.68;;;2.85;;
20637;SDS011;10478;49.004;8.470;2023-10-13T01:53:20;6.78;;;3.22;;
20637;SDS011;10478;49.004;8.470;2023-10-13T01:55:47;5.93;;;3.38;;
20637;SDS011;10478;49.004;8.470;2023-10-13T01:58:13;7.45;;;3.00;;
20637;SDS011;10478;49.004;8.470;2023-10-13T02:00:43;6.28;;;2.97;;
20637;SDS011;10478;49.004;8.470;2023-10-13T02:03:09;9.55;;;3.47;;
20637;SDS011;10478;49.004;8.470;2023-10-13T02:05:45;7.65;;;3.60;;
20637;SDS011;10478;49.004;8.470;2023-10-13T02:08:15;8.60;;;3.13;;
20637;SDS011;10478;49.004;8.470;2023-10-13T02:10:50;8.70;;;3.45;;
20637;SDS011;10478;49.004;8.470;2023-10-13T02:13:16;5.30;;;3.30;;
20637;SDS011;10478;49.004;8.470;2023-10-13T02:15:46;8.07;;;3.20;;
20637;SDS011;10478;49.004;8.470;2023-10-13T02:18:16;7.78;;;3.65;;
20637;SDS011;10478;49.004;8.470;2023-10-13T02:20:46;9.80;;;3.35;;
20637;SDS011;10478;49.004;8.470;2023-10-13T02:23:19;5.75;;;2.63;;
20637;SDS011;10478;49.004;8.470;2023-10-13T02:25:45;7.70;;;3.08;;
20637;SDS011;10478;49.004;8.470;2023-10-13T02:28:10;7.50;;;3.58;;
20637;SDS011;10478;49.004;8.470;2023-10-13T02:30:43;8.38;;;3.72;;
20637;SDS011;10478;49.004;8.470;2023-10-13T02:33:14;5.03;;;2.60;;
20637;SDS011;10478;49.004;8.470;2023-10-13T02:35:40;6.00;;;2.95;;
20637;SDS011;10478;49.004;8.470;2023-10-13T02:38:15;6.80;;;2.60;;
20637;SDS011;10478;49.004;8.470;2023-10-13T02:40:41;5.50;;;2.58;;
20637;SDS011;10478;49.004;8.470;2023-10-13T02:43:07;8.68;;;3.40;;
20637;SDS011;10478;49.004;8.470;2023-10-13T02:45:32;7.97;;;3.00;;
20637;SDS011;10478;49.004;8.470;2023-10-13T02:48:01;6.15;;;3.35;;
20637;SDS011;10478;49.004;8.470;2023-10-13T02:50:42;7.13;;;3.33;;
20637;SDS011;10478;49.004;8.470;2023-10-13T02:53:09;7.03;;;3.33;;
20637;SDS011;10478;49.004;8.470;2023-10-13T02:55:37;6.65;;;3.28;;
20637;SDS011;10478;49.004;8.470;2023-10-13T02:58:04;5.53;;;3.13;;
20637;SDS011;10478;49.004;8.470;2023-10-13T03:00:29;6.20;;;3.42;;
20637;SDS011;10478;49.004;8.470;2023-10-13T03:02:56;8.60;;;3.65;;
20637;SDS011;10478;49.004;8.470;2023-10-13T03:05:25;10.65;;;4.25;;
20637;SDS011;10478;49.004;8.470;2023-10-13T03:07:54;5.57;;;3.13;;
20637;SDS011;10478;49.004;8.470;2023-10-13T03:10:20;6.65;;;2.83;;
20637;SDS011;10478;49.004;8.470;2023-10-13T03:12:46;7.18;;;3.28;;
20637;SDS011;10478;49.004;8.470;2023-10-13T03:15:14;8.43;;;3.65;;
20637;SDS011;10478;49.004;8.470;2023-10-13T03:17:47;12.63;;;3.67;;
20637;SDS011;10478;49.004;8.470;2023-10-13T03:20:14;6.15;;;3.17;;
20637;SDS011;10478;49.004;8.470;2023-10-13T03:22:47;8.63;;;3.45;;
20637;SDS011;10478;49.004;8.470;2023-10-13T03:25:15;7.60;;;3.33;;
20637;SDS011;10478;49.004;8.470;2023-10-13T03:27:50;8.80;;;2.97;;
20637;SDS011;10478;49.004;8.470;2023-10-13T03:30:16;10.98;;;3.70;;
20637;SDS011;10478;49.004;8.470;2023-10-13T03:32:41;10.20;;;3.25;;
20637;SDS011;10478;49.004;8.470;2023-10-13T03:35:10;14.45;;;3.88;;
20637;SDS011;10478;49.004;8.470;2023-10-13T03:37:38;9.35;;;3.42;;
20637;SDS011;10478;49.004;8.470;2023-10-13T03:40:11;8.80;;;3.63;;
20637;SDS011;10478;49.004;8.470;2023-10-13T03:42:50;7.82;;;4.40;;
20637;SDS011;10478;49.004;8.470;2023-10-13T03:45:39;5.97;;;3.58;;
20637;SDS011;10478;49.004;8.470;2023-10-13T03:48:08;8.70;;;4.35;;
20637;SDS011;10478;49.004;8.470;2023-10-13T03:50:38;12.02;;;6.10;;
20637;SDS011;10478;49.004;8.470;2023-10-13T03:53:22;8.90;;;4.38;;
20637;SDS011;10478;49.004;8.470;2023-10-13T03:55:50;10.50;;;5.20;;
20637;SDS011;10478;49.004;8.470;2023-10-13T03:58:32;9.18;;;4.40;;
20637;SDS011;10478;49.004;8.470;2023-10-13T04:00:59;7.43;;;4.43;;
20637;SDS011;10478;49.004;8.470;2023-10-13T04:03:25;7.38;;;3.47;;
20637;SDS011;10478;49.004;8.470;2023-10-13T04:05:58;8.80;;;3.80;;
20637;SDS011;10478;49.004;8.470;2023-10-13T04:08:31;6.85;;;3.92;;
20637;SDS011;10478;49.004;8.470;2023-10-13T04:11:14;5.70;;;3.38;;
20637;SDS011;10478;49.004;8.470;2023-10-13T04:13:58;9.30;;;4.38;;
20637;SDS011;10478;49.004;8.470;2023-10-13T04:16:42;11.60;;;5.03;;
20637;SDS011;10478;49.004;8.470;2023-10-13T04:19:17;14.55;;;5.07;;
20637;SDS011;10478;49.004;8.470;2023-10-13T04:21:47;6.93;;;3.40;;
20637;SDS011;10478;49.004;8.470;2023-10-13T04:24:39;9.07;;;3.88;;
20637;SDS011;10478;49.004;8.470;2023-10-13T04:27:19;8.27;;;4.30;;
20637;SDS011;10478;49.004;8.470;2023-10-13T04:30:03;9.38;;;4.18;;
20637;SDS011;10478;49.004;8.470;2023-10-13T04:32:32;10.13;;;4.10;;
20637;SDS011;10478;49.004;8.470;2023-10-13T04:35:04;31.30;;;14.63;;
20637;SDS011;10478;49.004;8.470;2023-10-13T04:37:38;15.82;;;8.48;;
20637;SDS011;10478;49.004;8.470;2023-10-13T04:40:24;82.85;;;43.40;;
20637;SDS011;10478;49.004;8.470;2023-10-13T04:42:50;43.67;;;25.48;;
20637;SDS011;10478;49.004;8.470;2023-10-13T04:45:19;55.30;;;30.00;;
20637;SDS011;10478;49.004;8.470;2023-10-13T04:48:00;42.65;;;23.58;;
20637;SDS011;10478;49.004;8.470;2023-10-13T04:50:45;40.88;;;20.65;;
20637;SDS011;10478;49.004;8.470;2023-10-13T04:53:13;15.23;;;6.80;;
20637;SDS011;10478;49.004;8.470;2023-10-13T04:55:59;8.98;;;4.18;;
20637;SDS011;10478;49.004;8.470;2023-10-13T04:58:31;10.27;;;5.05;;
20637;SDS011;10478;49.004;8.470;2023-10-13T05:01:00;9.15;;;5.05;;
20637;SDS011;10478;49.004;8.470;2023-10-13T05:03:44;10.43;;;4.28;;
20637;SDS011;10478;49.004;8.470;2023-10-13T05:06:28;10.27;;;4.90;;
20637;SDS011;10478;49.004;8.470;2023-10-13T05:09:09;8.30;;;4.20;;
20637;SDS011;10478;49.004;8.470;2023-10-13T05:11:56;8.38;;;4.72;;
20637;SDS011;10478;49.004;8.470;2023-10-13T05:14:40;9.27;;;5.10;;
20637;SDS011;10478;49.004;8.470;2023-10-13T05:17:24;9.88;;;4.40;;
20637;SDS011;10478;49.004;8.470;2023-10-13T05:20:08;9.45;;;4.05;;
20637;SDS011;10478;49.004;8.470;2023-10-13T05:22:52;7.47;;;5.13;;
20637;SDS011;10478;49.004;8.470;2023-10-13T05:25:36;9.98;;;4.93;;
20637;SDS011;10478;49.004;8.470;2023-10-13T05:28:21;6.97;;;4.28;;
20637;SDS011;10478;49.004;8.470;2023-10-13T05:31:05;10.07;;;3.92;;
20637;SDS011;10478;49.004;8.470;2023-10-13T05:33:50;43.75;;;20.33;;
20637;SDS011;10478;49.004;8.470;2023-10-13T05:36:34;90.68;;;48.00;;
20637;SDS011;10478;49.004;8.470;2023-10-13T05:39:18;17.73;;;10.93;;
20637;SDS011;10478;49.004;8.470;2023-10-13T05:42:01;12.57;;;5.38;;
20637;SDS011;10478;49.004;8.470;2023-10-13T05:44:45;10.30;;;5.35;;
20637;SDS011;10478;49.004;8.470;2023-10-13T05:47:29;12.27;;;5.20;;
20637;SDS011;10478;49.004;8.470;2023-10-13T05:52:45;8.85;;;4.28;;
20637;SDS011;10478;49.004;8.470;2023-10-13T05:55:29;7.88;;;4.30;;
20637;SDS011;10478;49.004;8.470;2023-10-13T05:58:13;12.00;;;4.03;;
20637;SDS011;10478;49.004;8.470;2023-10-13T06:00:58;12.70;;;4.47;;
20637;SDS011;10478;49.004;8.470;2023-10-13T06:03:41;9.82;;;4.15;;
20637;SDS011;10478;49.004;8.470;2023-10-13T06:06:25;10.07;;;3.92;;
20637;SDS011;10478;49.004;8.470;2023-10-13T06:09:09;10.02;;;4.18;;
20637;SDS011;10478;49.004;8.470;2023-10-13T06:11:53;14.02;;;5.70;;
20637;SDS011;10478;49.004;8.470;2023-10-13T06:14:37;9.88;;;5.25;;
20637;SDS011;10478;49.004;8.470;2023-10-13T06:17:21;9.57;;;5.03;;
20637;SDS011;10478;49.004;8.470;2023-10-13T06:20:06;10.10;;;5.20;;
20637;SDS011;10478;49.004;8.470;2023-10-13T06:22:50;9.73;;;4.45;;
20637;SDS011;10478;49.004;8.470;2023-10-13T06:25:34;8.55;;;4.38;;
20637;SDS011;10478;49.004;8.470;2023-10-13T06:28:18;10.93;;;3.88;;
20637;SDS011;10478;49.004;8.470;2023-10-13T06:31:04;13.73;;;4.22;;
20637;SDS011;10478;49.004;8.470;2023-10-13T06:33:31;10.30;;;4.47;;
20637;SDS011;10478;49.004;8.470;2023-10-13T06:35:58;7.40;;;4.13;;
20637;SDS011;10478;49.004;8.470;2023-10-13T06:38:24;9.80;;;4.90;;
20637;SDS011;10478;49.004;8.470;2023-10-13T06:40:52;9.40;;;4.68;;
20637;SDS011;10478;49.004;8.470;2023-10-13T06:43:17;11.50;;;5.30;;
20637;SDS011;10478;49.004;8.470;2023-10-13T06:45:46;9.07;;;4.93;;
20637;SDS011;10478;49.004;8.470;2023-10-13T06:48:25;7.50;;;4.43;;
20637;SDS011;10478;49.004;8.470;2023-10-13T06:50:51;10.73;;;3.80;;
20637;SDS011;10478;49.004;8.470;2023-10-13T06:53:17;9.25;;;4.80;;
20637;SDS011;10478;49.004;8.470;2023-10-13T06:55:46;9.50;;;4.97;;
20637;SDS011;10478;49.004;8.470;2023-10-13T06:58:17;10.63;;;4.20;;
20637;SDS011;10478;49.004;8.470;2023-10-13T07:00:48;6.32;;;4.65;;
20637;SDS011;10478;49.004;8.470;2023-10-13T07:03:21;10.18;;;4.30;;
20637;SDS011;10478;49.004;8.470;2023-10-13T07:05:47;7.15;;;4.28;;
20637;SDS011;10478;49.004;8.470;2023-10-13T07:08:12;9.10;;;3.85;;
20637;SDS011;10478;49.004;8.470;2023-10-13T07:10:47;19.55;;;11.00;;
20637;SDS011;10478;49.004;8.470;2023-10-13T07:13:28;7.97;;;4.82;;
20637;SDS011;10478;49.004;8.470;2023-10-13T07:15:53;9.45;;;4.38;;
20637;SDS011;10478;49.004;8.470;2023-10-13T07:18:25;9.60;;;4.10;;
20637;SDS011;10478;49.004;8.470;2023-10-13T07:20:51;11.45;;;4.28;;
20637;SDS011;10478;49.004;8.470;2023-10-13T07:23:17;7.50;;;4.03;;
20637;SDS011;10478;49.004;8.470;2023-10-13T07:25:43;7.50;;;3.67;;
20637;SDS011;10478;49.004;8.470;2023-10-13T07:28:16;8.88;;;4.00;;
20637;SDS011;10478;49.004;8.470;2023-10-13T07:30:41;11.23;;;4.40;;
20637;SDS011;10478;49.004;8.470;2023-10-13T07:33:19;10.55;;;3.80;;
20637;SDS011;10478;49.004;8.470;2023-10-13T07:35:47;14.43;;;4.38;;
20637;SDS011;10478;49.004;8.470;2023-10-13T07:38:19;13.65;;;4.35;;
20637;SDS011;10478;49.004;8.470;2023-10-13T07:40:46;10.30;;;4.15;;
20637;SDS011;10478;49.004;8.470;2023-10-13T07:43:18;9.30;;;3.65;;
20637;SDS011;10478;49.004;8.470;2023-10-13T07:45:47;8.60;;;3.60;;
20637;SDS011;10478;49.004;8.470;2023-10-13T07:48:16;9.55;;;3.85;;
20637;SDS011;10478;49.004;8.470;2023-10-13T07:50:45;7.47;;;4.13;;
20637;SDS011;10478;49.004;8.470;2023-10-13T07:53:11;13.88;;;4.65;;
20637;SDS011;10478;49.004;8.470;2023-10-13T07:55:48;7.18;;;3.60;;
20637;SDS011;10478;49.004;8.470;2023-10-13T07:58:20;8.38;;;4.15;;
20637;SDS011;10478;49.004;8.470;2023-10-13T08:00:45;7.85;;;4.50;;
20637;SDS011;10478;49.004;8.470;2023-10-13T08:03:11;9.80;;;3.70;;
20637;SDS011;10478;49.004;8.470;2023-10-13T08:05:40;6.18;;;3.53;;
20637;SDS011;10478;49.004;8.470;2023-10-13T08:08:23;9.63;;;3.60;;
20637;SDS011;10478;49.004;8.470;2023-10-13T08:11:08;11.10;;;3.90;;
20637;SDS011;10478;49.004;8.470;2023-10-13T08:13:54;8.27;;;3.60;;
20637;SDS011;10478;49.004;8.470;2023-10-13T08:16:23;9.98;;;3.55;;
20637;SDS011;10478;49.004;8.470;2023-10-13T08:18:54;6.57;;;3.53;;
20637;SDS011;10478;49.004;8.470;2023-10-13T08:21:19;11.57;;;3.47;;
20637;SDS011;10478;49.004;8.470;2023-10-13T08:23:48;7.20;;;3.92;;
20637;SDS011;10478;49.004;8.470;2023-10-13T08:26:21;8.60;;;3.80;;
20637;SDS011;10478;49.004;8.470;2023-10-13T08:29:16;7.55;;;3.90;;
20637;SDS011;10478;49.004;8.470;2023-10-13T08:31:47;11.00;;;3.88;;
20637;SDS011;10478;49.004;8.470;2023-10-13T08:34:33;6.65;;;3.53;;
20637;SDS011;10478;49.004;8.470;2023-10-13T08:37:08;7.80;;;3.90;;
20637;SDS011;10478;49.004;8.470;2023-10-13T08:39:49;6.03;;;4.13;;
20637;SDS011;10478;49.004;8.470;2023-10-13T08:42:31;10.02;;;3.72;;
20637;SDS011;10478;49.004;8.470;2023-10-13T08:45:09;8.15;;;3.60;;
20637;SDS011;10478;49.004;8.470;2023-10-13T08:47:59;7.13;;;3.38;;
20637;SDS011;10478;49.004;8.470;2023-10-13T08:53:14;7.18;;;3.63;;
20637;SDS011;10478;49.004;8.470;2023-10-13T08:56:05;10.00;;;2.95;;
20637;SDS011;10478;49.004;8.470;2023-10-13T09:01:23;7.55;;;3.40;;
20637;SDS011;10478;49.004;8.470;2023-10-13T09:03:58;6.63;;;2.85;;
20637;SDS011;10478;49.004;8.470;2023-10-13T09:07:02;11.40;;;3.60;;
20637;SDS011;10478;49.004;8.470;2023-10-13T09:14:38;10.98;;;3.40;;
20637;SDS011;10478;49.004;8.470;2023-10-13T09:17:09;8.65;;;3.10;;
20637;SDS011;10478;49.004;8.470;2023-10-13T09:19:51;7.00;;;3.53;;
20637;SDS011;10478;49.004;8.470;2023-10-13T09:22:37;6.80;;;2.85;;
20637;SDS011;10478;49.004;8.470;2023-10-13T09:25:02;8.57;;;3.42;;
20637;SDS011;10478;49.004;8.470;2023-10-13T09:27:38;7.60;;;2.65;;
20637;SDS011;10478;49.004;8.470;2023-10-13T09:30:03;7.40;;;2.78;;
20637;SDS011;10478;49.004;8.470;2023-10-13T09:33:02;8.75;;;2.85;;
20637;SDS011;10478;49.004;8.470;2023-10-13T09:35:33;7.18;;;2.75;;
20637;SDS011;10478;49.004;8.470;2023-10-13T09:38:02;7.13;;;2.47;;
20637;SDS011;10478;49.004;8.470;2023-10-13T09:40:28;9.48;;;2.85;;
20637;SDS011;10478;49.004;8.470;2023-10-13T09:43:00;6.32;;;2.30;;
20637;SDS011;10478;49.004;8.470;2023-10-13T09:45:39;6.43;;;2.50;;
20637;SDS011;10478;49.004;8.470;2023-10-13T09:48:08;5.28;;;2.20;;
20637;SDS011;10478;49.004;8.470;2023-10-13T09:50:42;4.35;;;2.25;;
20637;SDS011;10478;49.004;8.470;2023-10-13T09:53:11;8.82;;;2.83;;
20637;SDS011;10478;49.004;8.470;2023-10-13T09:55:40;6.57;;;2.53;;
20637;SDS011;10478;49.004;8.470;2023-10-13T09:58:09;5.03;;;2.58;;
20637;SDS011;10478;49.004;8.470;2023-10-13T10:00:46;5.20;;;2.30;;
20637;SDS011;10478;49.004;8.470;2023-10-13T10:03:21;6.65;;;2.53;;
20637;SDS011;10478;49.004;8.470;2023-10-13T10:05:59;5.18;;;2.63;;
20637;SDS011;10478;49.004;8.470;2023-10-13T10:08:28;6.20;;;2.50;;
20637;SDS011;10478;49.004;8.470;2023-10-13T10:11:01;6.78;;;3.03;;
20637;SDS011;10478;49.004;8.470;2023-10-13T10:16:39;4.97;;;3.03;;
20637;SDS011;10478;49.004;8.470;2023-10-13T10:19:14;12.88;;;2.97;;
20637;SDS011;10478;49.004;8.470;2023-10-13T10:21:39;13.95;;;2.90;;
20637;SDS011;10478;49.004;8.470;2023-10-13T10:24:15;4.38;;;2.05;;
20637;SDS011;10478;49.004;8.470;2023-10-13T10:26:55;8.73;;;2.22;;
20637;SDS011;10478;49.004;8.470;2023-10-13T10:29:21;8.65;;;2.83;;
20637;SDS011;10478;49.004;8.470;2023-10-13T10:31:46;7.85;;;2.50;;
20637;SDS011;10478;49.004;8.470;2023-10-13T10:34:16;9.63;;;2.50;;
20637;SDS011;10478;49.004;8.470;2023-10-13T10:36:53;5.43;;;2.28;;
20637;SDS011;10478;49.004;8.470;2023-10-13T10:39:19;5.57;;;2.42;;
20637;SDS011;10478;49.004;8.470;2023-10-13T10:41:46;3.58;;;2.08;;
20637;SDS011;10478;49.004;8.470;2023-10-13T10:44:17;12.30;;;2.67;;
20637;SDS011;10478;49.004;8.470;2023-10-13T10:47:08;9.70;;;2.60;;
20637;SDS011;10478;49.004;8.470;2023-10-13T10:49:44;4.63;;;2.47;;
20637;SDS011;10478;49.004;8.470;2023-10-13T10:52:11;7.93;;;2.70;;
20637;SDS011;10478;49.004;8.470;2023-10-13T10:54:43;7.28;;;2.75;;
20637;SDS011;10478;49.004;8.470;2023-10-13T10:57:09;8.55;;;2.33;;
20637;SDS011;10478;49.004;8.470;2023-10-13T10:59:42;4.95;;;2.60;;
20637;SDS011;10478;49.004;8.470;2023-10-13T11:02:07;5.15;;;2.20;;
20637;SDS011;10478;49.004;8.470;2023-10-13T11:04:34;4.93;;;2.63;;
20637;SDS011;10478;49.004;8.470;2023-10-13T11:07:05;5.68;;;1.98;;
20637;SDS011;10478;49.004;8.470;2023-10-13T11:09:32;6.70;;;2.00;;
20637;SDS011;10478;49.004;8.470;2023-10-13T11:12:11;6.38;;;1.85;;
20637;SDS011;10478;49.004;8.470;2023-10-13T11:14:40;6.18;;;2.47;;
20637;SDS011;10478;49.004;8.470;2023-10-13T11:17:06;6.32;;;2.75;;
20637;SDS011;10478;49.004;8.470;2023-10-13T11:19:43;7.95;;;1.88;;
20637;SDS011;10478;49.004;8.470;2023-10-13T11:22:10;4.65;;;2.22;;
20637;SDS011;10478;49.004;8.470;2023-10-13T11:24:39;3.63;;;2.15;;
20637;SDS011;10478;49.004;8.470;2023-10-13T11:27:13;3.78;;;2.00;;
20637;SDS011;10478;49.004;8.470;2023-10-13T11:29:41;6.32;;;2.50;;
20637;SDS011;10478;49.004;8.470;2023-10-13T11:32:06;4.60;;;2.15;;
20637;SDS011;10478;49.004;8.470;2023-10-13T11:34:32;8.25;;;2.20;;
20637;SDS011;10478;49.004;8.470;2023-10-13T11:37:04;4.32;;;1.80;;
20637;SDS011;10478;49.004;8.470;2023-10-13T11:39:50;5.13;;;2.38;;
20637;SDS011;10478;49.004;8.470;2023-10-13T11:42:16;6.03;;;2.28;;
20637;SDS011;10478;49.004;8.470;2023-10-13T11:44:42;8.10;;;2.47;;
20637;SDS011;10478;49.004;8.470;2023-10-13T11:47:10;8.38;;;3.00;;
20637;SDS011;10478;49.004;8.470;2023-10-13T11:50:01;8.65;;;3.55;;
20637;SDS011;10478;49.004;8.470;2023-10-13T11:52:30;5.00;;;2.15;;
20637;SDS011;10478;49.004;8.470;2023-10-13T11:54:55;4.07;;;1.95;;
20637;SDS011;10478;49.004;8.470;2023-10-13T11:57:21;7.20;;;2.20;;
20637;SDS011;10478;49.004;8.470;2023-10-13T11:59:47;7.57;;;2.55;;
20637;SDS011;10478;49.004;8.470;2023-10-13T12:02:19;6.60;;;2.45;;
20637;SDS011;10478;49.004;8.470;2023-10-13T12:04:51;6.38;;;2.45;;
20637;SDS011;10478;49.004;8.470;2023-10-13T12:07:21;6.25;;;2.42;;
20637;SDS011;10478;49.004;8.470;2023-10-13T12:10:10;4.70;;;2.15;;
20637;SDS011;10478;49.004;8.470;2023-10-13T12:12:58;4.55;;;2.55;;
20637;SDS011;10478;49.004;8.470;2023-10-13T12:15:30;7.47;;;2.13;;
20637;SDS011;10478;49.004;8.470;2023-10-13T12:18:01;8.40;;;2.42;;
20637;SDS011;10478;49.004;8.470;2023-10-13T12:20:28;5.50;;;2.25;;
20637;SDS011;10478;49.004;8.470;2023-10-13T12:23:01;8.55;;;2.58;;
20637;SDS011;10478;49.004;8.470;2023-10-13T12:25:40;5.40;;;2.08;;
20637;SDS011;10478;49.004;8.470;2023-10-13T12:28:25;8.13;;;2.90;;
20637;SDS011;10478;49.004;8.470;2023-10-13T12:30:54;5.53;;;2.55;;
20637;SDS011;10478;49.004;8.470;2023-10-13T12:33:22;8.18;;;2.70;;
20637;SDS011;10478;49.004;8.470;2023-10-13T12:36:02;5.57;;;2.33;;
20637;SDS011;10478;49.004;8.470;2023-10-13T12:38:39;2.85;;;1.60;;
20637;SDS011;10478;49.004;8.470;2023-10-13T12:41:11;7.65;;;2.22;;
20637;SDS011;10478;49.004;8.470;2023-10-13T12:43:55;8.15;;;2.20;;
20637;SDS011;10478;49.004;8.470;2023-10-13T12:46:39;4.90;;;2.47;;
20637;SDS011;10478;49.004;8.470;2023-10-13T12:49:22;7.72;;;1.95;;
20637;SDS011;10478;49.004;8.470;2023-10-13T12:52:06;6.40;;;2.17;;
20637;SDS011;10478;49.004;8.470;2023-10-13T12:54:41;5.30;;;2.17;;
20637;SDS011;10478;49.004;8.470;2023-10-13T12:57:11;4.15;;;1.95;;
20637;SDS011;10478;49.004;8.470;2023-10-13T12:59:37;5.63;;;2.22;;
20637;SDS011;10478;49.004;8.470;2023-10-13T13:02:04;6.78;;;2.67;;
20637;SDS011;10478;49.004;8.470;2023-10-13T13:04:32;5.38;;;2.30;;
20637;SDS011;10478;49.004;8.470;2023-10-13T13:07:01;5.65;;;2.17;;
20637;SDS011;10478;49.004;8.470;2023-10-13T13:09:28;10.30;;;2.45;;
20637;SDS011;10478;49.004;8.470;2023-10-13T13:11:53;9.70;;;2.80;;
20637;SDS011;10478;49.004;8.470;2023-10-13T13:14:22;6.00;;;2.03;;
20637;SDS011;10478;49.004;8.470;2023-10-13T13:16:54;5.80;;;1.95;;
20637;SDS011;10478;49.004;8.470;2023-10-13T13:19:20;8.50;;;2.40;;
20637;SDS011;10478;49.004;8.470;2023-10-13T13:21:51;4.55;;;2.53;;
20637;SDS011;10478;49.004;8.470;2023-10-13T13:24:17;7.82;;;2.22;;
20637;SDS011;10478;49.004;8.470;2023-10-13T13:26:42;7.32;;;2.25;;
20637;SDS011;10478;49.004;8.470;2023-10-13T13:29:07;4.10;;;2.08;;
20637;SDS011;10478;49.004;8.470;2023-10-13T13:31:36;3.97;;;2.22;;
20637;SDS011;10478;49.004;8.470;2023-10-13T13:34:06;3.33;;;2.15;;
20637;SDS011;10478;49.004;8.470;2023-10-13T13:36:34;7.88;;;2.20;;
20637;SDS011;10478;49.004;8.470;2023-10-13T13:38:59;5.28;;;2.13;;
20637;SDS011;10478;49.004;8.470;2023-10-13T13:41:26;3.88;;;2.17;;
20637;SDS011;10478;49.004;8.470;2023-10-13T13:43:51;8.93;;;2.00;;
20637;SDS011;10478;49.004;8.470;2023-10-13T13:46:23;4.90;;;2.03;;
20637;SDS011;10478;49.004;8.470;2023-10-13T13:48:52;7.00;;;2.53;;
20637;SDS011;10478;49.004;8.470;2023-10-13T13:51:23;5.20;;;2.97;;
20637;SDS011;10478;49.004;8.470;2023-10-13T13:53:52;4.20;;;2.28;;
20637;SDS011;10478;49.004;8.470;2023-10-13T13:56:18;12.65;;;2.45;;
20637;SDS011;10478;49.004;8.470;2023-10-13T13:58:47;4.75;;;2.20;;
20637;SDS011;10478;49.004;8.470;2023-10-13T14:01:15;4.43;;;2.72;;
20637;SDS011;10478;49.004;8.470;2023-10-13T14:03:42;5.20;;;3.22;;
20637;SDS011;10478;49.004;8.470;2023-10-13T14:06:11;4.63;;;2.60;;
20637;SDS011;10478;49.004;8.470;2023-10-13T14:08:42;7.03;;;2.70;;
20637;SDS011;10478;49.004;8.470;2023-10-13T14:11:09;5.25;;;2.30;;
20637;SDS011;10478;49.004;8.470;2023-10-13T14:13:38;5.15;;;2.15;;
20637;SDS011;10478;49.004;8.470;2023-10-13T14:16:20;5.57;;;2.67;;
20637;SDS011;10478;49.004;8.470;2023-10-13T14:18:49;8.77;;;4.85;;
20637;SDS011;10478;49.004;8.470;2023-10-13T14:21:16;8.10;;;2.85;;
20637;SDS011;10478;49.004;8.470;2023-10-13T14:23:46;11.00;;;5.32;;
20637;SDS011;10478;49.004;8.470;2023-10-13T14:26:13;23.60;;;5.30;;
20637;SDS011;10478;49.004;8.470;2023-10-13T14:28:39;10.20;;;3.45;;
20637;SDS011;10478;49.004;8.470;2023-10-13T14:31:15;10.35;;;5.00;;
20637;SDS011;10478;49.004;8.470;2023-10-13T14:33:41;7.22;;;3.63;;
20637;SDS011;10478;49.004;8.470;2023-10-13T14:36:09;14.88;;;6.60;;
20637;SDS011;10478;49.004;8.470;2023-10-13T14:38:35;10.93;;;6.40;;
20637;SDS011;10478;49.004;8.470;2023-10-13T14:41:00;11.75;;;6.90;;
20637;SDS011;10478;49.004;8.470;2023-10-13T14:43:25;12.20;;;5.20;;
20637;SDS011;10478;49.004;8.470;2023-10-13T14:45:53;12.85;;;6.97;;
20637;SDS011;10478;49.004;8.470;2023-10-13T14:48:19;11.30;;;5.82;;
20637;SDS011;10478;49.004;8.470;2023-10-13T14:50:44;12.23;;;4.75;;
20637;SDS011;10478;49.004;8.470;2023-10-13T14:53:10;18.30;;;7.30;;
20637;SDS011;10478;49.004;8.470;2023-10-13T14:55:36;11.25;;;5.80;;
20637;SDS011;10478;49.004;8.470;2023-10-13T14:58:04;16.05;;;8.13;;
20637;SDS011;10478;49.004;8.470;2023-10-13T15:00:32;8.25;;;5.18;;
20637;SDS011;10478;49.004;8.470;2023-10-13T15:02:59;10.40;;;4.78;;
20637;SDS011;10478;49.004;8.470;2023-10-13T15:05:30;11.27;;;5.07;;
20637;SDS011;10478;49.004;8.470;2023-10-13T15:07:56;8.13;;;4.13;;
20637;SDS011;10478;49.004;8.470;2023-10-13T15:10:21;8.27;;;4.88;;
20637;SDS011;10478;49.004;8.470;2023-10-13T15:12:49;14.57;;;6.68;;
20637;SDS011;10478;49.004;8.470;2023-10-13T15:15:14;14.63;;;7.20;;
20637;SDS011;10478;49.004;8.470;2023-10-13T15:17:44;14.70;;;5.45;;
20637;SDS011;10478;49.004;8.470;2023-10-13T15:20:13;11.45;;;4.72;;
20637;SDS011;10478;49.004;8.470;2023-10-13T15:22:44;9.20;;;5.80;;
20637;SDS011;10478;49.004;8.470;2023-10-13T15:25:12;14.07;;;8.52;;
20637;SDS011;10478;49.004;8.470;2023-10-13T15:27:53;15.32;;;8.07;;
20637;SDS011;10478;49.004;8.470;2023-10-13T15:30:22;7.07;;;3.72;;
20637;SDS011;10478;49.004;8.470;2023-10-13T15:32:50;8.95;;;4.60;;